sensor_id;sensor_type;location;lat;lon;timestamp;P1;durP1;ratioP1;P2;durP2;ratioP2
13238;SDS011;6686;51.292;4.166;2023-03-31T00:01:52;9.67;;;3.07;;
13238;SDS011;6686;51.292;4.166;2023-03-31T00:04:41;10.65;;;3.10;;
13238;SDS011;6686;51.292;4.166;2023-03-31T00:07:26;12.53;;;3.23;;
13238;SDS011;6686;51.292;4.166;2023-03-31T00:10:12;9.00;;;2.80;;
13238;SDS011;6686;51.292;4.166;2023-03-31T00:12:59;8.10;;;2.83;;
13238;SDS011;6686;51.292;4.166;2023-03-31T00:15:44;10.95;;;3.45;;
13238;SDS011;6686;51.292;4.166;2023-03-31T00:18:31;13.07;;;3.30;;
13238;SDS011;6686;51.292;4.166;2023-03-31T00:21:18;10.83;;;3.10;;
13238;SDS011;6686;51.292;4.166;2023-03-31T00:24:08;14.27;;;4.10;;
13238;SDS011;6686;51.292;4.166;2023-03-31T00:26:54;15.67;;;3.77;;
13238;SDS011;6686;51.292;4.166;2023-03-31T00:29:40;10.07;;;2.60;;
13238;SDS011;6686;51.292;4.166;2023-03-31T00:32:26;11.30;;;3.60;;
13238;SDS011;6686;51.292;4.166;2023-03-31T00:35:11;13.03;;;2.80;;
13238;SDS011;6686;51.292;4.166;2023-03-31T00:37:57;11.23;;;3.50;;
13238;SDS011;6686;51.292;4.166;2023-03-31T00:40:44;11.75;;;3.72;;
13238;SDS011;6686;51.292;4.166;2023-03-31T00:43:30;10.90;;;2.70;;
13238;SDS011;6686;51.292;4.166;2023-03-31T00:46:21;13.38;;;4.12;;
13238;SDS011;6686;51.292;4.166;2023-03-31T00:49:05;15.57;;;4.00;;
13238;SDS011;6686;51.292;4.166;2023-03-31T00:51:51;16.70;;;4.07;;
13238;SDS011;6686;51.292;4.166;2023-03-31T00:54:37;13.13;;;3.73;;
13238;SDS011;6686;51.292;4.166;2023-03-31T00:57:23;14.93;;;2.97;;
13238;SDS011;6686;51.292;4.166;2023-03-31T01:00:09;14.02;;;3.90;;
13238;SDS011;6686;51.292;4.166;2023-03-31T01:03:01;11.20;;;3.60;;
13238;SDS011;6686;51.292;4.166;2023-03-31T01:05:51;12.23;;;3.40;;
13238;SDS011;6686;51.292;4.166;2023-03-31T01:08:35;14.03;;;3.37;;
13238;SDS011;6686;51.292;4.166;2023-03-31T01:11:21;11.57;;;3.27;;
13238;SDS011;6686;51.292;4.166;2023-03-31T01:14:07;17.13;;;3.70;;
13238;SDS011;6686;51.292;4.166;2023-03-31T01:16:53;9.37;;;3.30;;
13238;SDS011;6686;51.292;4.166;2023-03-31T01:19:46;13.13;;;3.10;;
13238;SDS011;6686;51.292;4.166;2023-03-31T01:35:22;16.90;;;3.80;;
13238;SDS011;6686;51.292;4.166;2023-03-31T01:38:20;13.60;;;3.60;;
13238;SDS011;6686;51.292;4.166;2023-03-31T01:41:10;10.57;;;3.53;;
13238;SDS011;6686;51.292;4.166;2023-03-31T01:44:15;10.43;;;2.93;;
13238;SDS011;6686;51.292;4.166;2023-03-31T01:46:59;12.97;;;3.17;;
13238;SDS011;6686;51.292;4.166;2023-03-31T01:52:44;14.40;;;3.10;;
13238;SDS011;6686;51.292;4.166;2023-03-31T01:55:46;11.00;;;3.00;;
13238;SDS011;6686;51.292;4.166;2023-03-31T01:58:54;9.30;;;3.13;;
13238;SDS011;6686;51.292;4.166;2023-03-31T02:04:33;13.62;;;3.67;;
13238;SDS011;6686;51.292;4.166;2023-03-31T02:07:18;14.63;;;4.07;;
13238;SDS011;6686;51.292;4.166;2023-03-31T02:10:03;15.53;;;3.27;;
13238;SDS011;6686;51.292;4.166;2023-03-31T02:12:49;11.00;;;3.13;;
13238;SDS011;6686;51.292;4.166;2023-03-31T02:15:36;13.67;;;2.77;;
13238;SDS011;6686;51.292;4.166;2023-03-31T02:18:21;10.70;;;3.00;;
13238;SDS011;6686;51.292;4.166;2023-03-31T02:21:07;15.40;;;2.83;;
13238;SDS011;6686;51.292;4.166;2023-03-31T02:23:53;13.23;;;3.03;;
13238;SDS011;6686;51.292;4.166;2023-03-31T02:26:40;10.47;;;2.53;;
13238;SDS011;6686;51.292;4.166;2023-03-31T02:29:25;6.00;;;2.17;;
13238;SDS011;6686;51.292;4.166;2023-03-31T02:32:13;9.87;;;2.70;;
13238;SDS011;6686;51.292;4.166;2023-03-31T02:34:59;12.27;;;2.70;;
13238;SDS011;6686;51.292;4.166;2023-03-31T02:37:45;12.13;;;2.80;;
13238;SDS011;6686;51.292;4.166;2023-03-31T02:40:31;12.07;;;2.90;;
13238;SDS011;6686;51.292;4.166;2023-03-31T02:43:18;9.13;;;2.90;;
13238;SDS011;6686;51.292;4.166;2023-03-31T02:46:03;6.50;;;2.27;;
13238;SDS011;6686;51.292;4.166;2023-03-31T02:48:50;10.37;;;3.10;;
13238;SDS011;6686;51.292;4.166;2023-03-31T03:06:41;9.50;;;3.27;;
13238;SDS011;6686;51.292;4.166;2023-03-31T03:09:34;11.03;;;3.33;;
13238;SDS011;6686;51.292;4.166;2023-03-31T03:12:21;10.30;;;3.13;;
13238;SDS011;6686;51.292;4.166;2023-03-31T03:15:17;9.67;;;3.57;;
13238;SDS011;6686;51.292;4.166;2023-03-31T03:18:02;8.43;;;2.60;;
13238;SDS011;6686;51.292;4.166;2023-03-31T03:20:47;6.50;;;2.43;;
13238;SDS011;6686;51.292;4.166;2023-03-31T03:23:33;9.13;;;2.70;;
13238;SDS011;6686;51.292;4.166;2023-03-31T03:26:19;9.33;;;3.07;;
13238;SDS011;6686;51.292;4.166;2023-03-31T03:29:05;7.77;;;2.80;;
13238;SDS011;6686;51.292;4.166;2023-03-31T03:31:51;4.23;;;2.03;;
13238;SDS011;6686;51.292;4.166;2023-03-31T03:34:36;6.57;;;3.00;;
13238;SDS011;6686;51.292;4.166;2023-03-31T03:37:22;9.33;;;2.97;;
13238;SDS011;6686;51.292;4.166;2023-03-31T03:40:08;7.73;;;2.90;;
13238;SDS011;6686;51.292;4.166;2023-03-31T03:42:54;8.10;;;2.50;;
13238;SDS011;6686;51.292;4.166;2023-03-31T03:45:40;7.63;;;2.60;;
13238;SDS011;6686;51.292;4.166;2023-03-31T03:48:25;4.90;;;2.77;;
13238;SDS011;6686;51.292;4.166;2023-03-31T03:51:11;5.27;;;2.53;;
13238;SDS011;6686;51.292;4.166;2023-03-31T03:53:57;6.97;;;2.70;;
13238;SDS011;6686;51.292;4.166;2023-03-31T03:56:43;4.93;;;2.37;;
13238;SDS011;6686;51.292;4.166;2023-03-31T03:59:29;7.63;;;2.77;;
13238;SDS011;6686;51.292;4.166;2023-03-31T04:02:15;4.23;;;2.40;;
13238;SDS011;6686;51.292;4.166;2023-03-31T04:05:00;6.77;;;3.13;;
13238;SDS011;6686;51.292;4.166;2023-03-31T04:07:46;4.67;;;2.10;;
13238;SDS011;6686;51.292;4.166;2023-03-31T04:10:32;2.87;;;1.83;;
13238;SDS011;6686;51.292;4.166;2023-03-31T04:13:18;4.13;;;2.10;;
13238;SDS011;6686;51.292;4.166;2023-03-31T04:16:04;6.70;;;1.93;;
13238;SDS011;6686;51.292;4.166;2023-03-31T04:18:53;3.20;;;1.80;;
13238;SDS011;6686;51.292;4.166;2023-03-31T04:21:39;4.47;;;1.87;;
13238;SDS011;6686;51.292;4.166;2023-03-31T04:24:25;5.33;;;2.20;;
13238;SDS011;6686;51.292;4.166;2023-03-31T04:27:10;4.03;;;1.47;;
13238;SDS011;6686;51.292;4.166;2023-03-31T04:29:56;4.73;;;1.83;;
13238;SDS011;6686;51.292;4.166;2023-03-31T04:32:42;2.43;;;1.50;;
13238;SDS011;6686;51.292;4.166;2023-03-31T04:35:29;3.63;;;1.60;;
13238;SDS011;6686;51.292;4.166;2023-03-31T04:38:32;2.43;;;0.90;;
13238;SDS011;6686;51.292;4.166;2023-03-31T04:41:18;3.30;;;1.30;;
13238;SDS011;6686;51.292;4.166;2023-03-31T04:44:04;3.17;;;1.30;;
13238;SDS011;6686;51.292;4.166;2023-03-31T04:46:50;2.33;;;0.93;;
13238;SDS011;6686;51.292;4.166;2023-03-31T04:49:36;1.50;;;0.80;;
13238;SDS011;6686;51.292;4.166;2023-03-31T04:52:22;1.03;;;1.00;;
13238;SDS011;6686;51.292;4.166;2023-03-31T04:55:08;2.50;;;1.20;;
13238;SDS011;6686;51.292;4.166;2023-03-31T04:57:53;2.20;;;1.40;;
13238;SDS011;6686;51.292;4.166;2023-03-31T05:00:39;3.90;;;2.30;;
13238;SDS011;6686;51.292;4.166;2023-03-31T05:03:25;6.67;;;1.83;;
13238;SDS011;6686;51.292;4.166;2023-03-31T05:06:11;3.63;;;1.47;;
13238;SDS011;6686;51.292;4.166;2023-03-31T05:08:57;2.95;;;1.33;;
13238;SDS011;6686;51.292;4.166;2023-03-31T05:11:43;3.50;;;2.60;;
13238;SDS011;6686;51.292;4.166;2023-03-31T05:14:28;3.63;;;2.00;;
13238;SDS011;6686;51.292;4.166;2023-03-31T05:17:14;4.83;;;1.90;;
13238;SDS011;6686;51.292;4.166;2023-03-31T05:20:00;3.50;;;1.90;;
13238;SDS011;6686;51.292;4.166;2023-03-31T05:22:46;4.47;;;1.90;;
13238;SDS011;6686;51.292;4.166;2023-03-31T05:25:31;2.53;;;1.50;;
13238;SDS011;6686;51.292;4.166;2023-03-31T05:28:18;4.03;;;1.63;;
13238;SDS011;6686;51.292;4.166;2023-03-31T05:31:04;3.67;;;1.50;;
13238;SDS011;6686;51.292;4.166;2023-03-31T05:33:50;3.07;;;1.60;;
13238;SDS011;6686;51.292;4.166;2023-03-31T05:36:36;8.00;;;1.60;;
13238;SDS011;6686;51.292;4.166;2023-03-31T05:39:22;4.70;;;2.10;;
13238;SDS011;6686;51.292;4.166;2023-03-31T05:42:08;6.13;;;2.20;;
13238;SDS011;6686;51.292;4.166;2023-03-31T05:44:53;4.77;;;2.23;;
13238;SDS011;6686;51.292;4.166;2023-03-31T05:47:39;8.18;;;2.70;;
13238;SDS011;6686;51.292;4.166;2023-03-31T05:50:25;6.60;;;2.80;;
13238;SDS011;6686;51.292;4.166;2023-03-31T05:53:11;7.03;;;2.70;;
13238;SDS011;6686;51.292;4.166;2023-03-31T05:55:57;8.30;;;2.70;;
13238;SDS011;6686;51.292;4.166;2023-03-31T05:58:43;6.53;;;2.63;;
13238;SDS011;6686;51.292;4.166;2023-03-31T06:01:28;8.43;;;2.63;;
13238;SDS011;6686;51.292;4.166;2023-03-31T06:04:14;13.80;;;2.67;;
13238;SDS011;6686;51.292;4.166;2023-03-31T06:07:00;11.40;;;3.23;;
13238;SDS011;6686;51.292;4.166;2023-03-31T06:09:46;9.87;;;3.20;;
13238;SDS011;6686;51.292;4.166;2023-03-31T06:12:32;13.97;;;3.17;;
13238;SDS011;6686;51.292;4.166;2023-03-31T06:15:18;13.33;;;3.03;;
13238;SDS011;6686;51.292;4.166;2023-03-31T06:18:04;7.73;;;3.17;;
13238;SDS011;6686;51.292;4.166;2023-03-31T06:20:50;14.53;;;3.83;;
13238;SDS011;6686;51.292;4.166;2023-03-31T06:23:36;7.87;;;3.37;;
13238;SDS011;6686;51.292;4.166;2023-03-31T06:26:29;14.10;;;3.83;;
13238;SDS011;6686;51.292;4.166;2023-03-31T06:29:11;11.43;;;3.90;;
13238;SDS011;6686;51.292;4.166;2023-03-31T06:31:57;9.65;;;3.53;;
13238;SDS011;6686;51.292;4.166;2023-03-31T06:34:43;15.63;;;3.70;;
13238;SDS011;6686;51.292;4.166;2023-03-31T06:37:29;11.30;;;3.37;;
13238;SDS011;6686;51.292;4.166;2023-03-31T06:40:15;11.90;;;4.10;;
13238;SDS011;6686;51.292;4.166;2023-03-31T06:43:01;13.53;;;3.60;;
13238;SDS011;6686;51.292;4.166;2023-03-31T06:45:47;12.37;;;3.90;;
13238;SDS011;6686;51.292;4.166;2023-03-31T06:48:33;13.67;;;3.97;;
13238;SDS011;6686;51.292;4.166;2023-03-31T06:51:19;14.53;;;4.47;;
13238;SDS011;6686;51.292;4.166;2023-03-31T06:54:05;13.37;;;3.33;;
13238;SDS011;6686;51.292;4.166;2023-03-31T06:56:51;12.60;;;3.80;;
13238;SDS011;6686;51.292;4.166;2023-03-31T06:59:38;9.53;;;3.23;;
13238;SDS011;6686;51.292;4.166;2023-03-31T07:02:23;16.10;;;4.13;;
13238;SDS011;6686;51.292;4.166;2023-03-31T07:05:09;14.73;;;4.43;;
13238;SDS011;6686;51.292;4.166;2023-03-31T07:07:56;14.97;;;3.77;;
13238;SDS011;6686;51.292;4.166;2023-03-31T07:10:41;9.97;;;4.70;;
13238;SDS011;6686;51.292;4.166;2023-03-31T07:13:27;17.20;;;4.00;;
13238;SDS011;6686;51.292;4.166;2023-03-31T07:16:13;10.57;;;3.70;;
13238;SDS011;6686;51.292;4.166;2023-03-31T07:18:59;9.23;;;3.73;;
13238;SDS011;6686;51.292;4.166;2023-03-31T07:21:45;11.87;;;3.77;;
13238;SDS011;6686;51.292;4.166;2023-03-31T07:24:30;15.70;;;4.10;;
13238;SDS011;6686;51.292;4.166;2023-03-31T07:27:16;12.10;;;3.77;;
13238;SDS011;6686;51.292;4.166;2023-03-31T07:30:04;16.10;;;4.30;;
13238;SDS011;6686;51.292;4.166;2023-03-31T07:32:49;10.93;;;3.57;;
13238;SDS011;6686;51.292;4.166;2023-03-31T07:35:39;16.00;;;4.17;;
13238;SDS011;6686;51.292;4.166;2023-03-31T07:38:24;11.40;;;4.23;;
13238;SDS011;6686;51.292;4.166;2023-03-31T07:41:10;15.20;;;4.27;;
13238;SDS011;6686;51.292;4.166;2023-03-31T07:43:56;18.00;;;4.77;;
13238;SDS011;6686;51.292;4.166;2023-03-31T07:46:41;11.50;;;3.90;;
13238;SDS011;6686;51.292;4.166;2023-03-31T07:49:27;13.07;;;4.30;;
13238;SDS011;6686;51.292;4.166;2023-03-31T07:52:13;14.30;;;4.00;;
13238;SDS011;6686;51.292;4.166;2023-03-31T07:54:59;17.00;;;4.67;;
13238;SDS011;6686;51.292;4.166;2023-03-31T07:57:45;10.93;;;3.70;;
13238;SDS011;6686;51.292;4.166;2023-03-31T08:00:31;11.37;;;3.93;;
13238;SDS011;6686;51.292;4.166;2023-03-31T08:03:17;15.87;;;3.97;;
13238;SDS011;6686;51.292;4.166;2023-03-31T08:06:03;10.63;;;3.63;;
13238;SDS011;6686;51.292;4.166;2023-03-31T08:08:49;10.33;;;4.17;;
13238;SDS011;6686;51.292;4.166;2023-03-31T08:11:35;14.77;;;4.40;;
13238;SDS011;6686;51.292;4.166;2023-03-31T08:14:21;8.70;;;2.93;;
13238;SDS011;6686;51.292;4.166;2023-03-31T08:17:07;12.27;;;3.47;;
13238;SDS011;6686;51.292;4.166;2023-03-31T08:19:53;14.60;;;4.68;;
13238;SDS011;6686;51.292;4.166;2023-03-31T08:22:39;15.50;;;3.87;;
13238;SDS011;6686;51.292;4.166;2023-03-31T08:25:25;13.50;;;4.35;;
13238;SDS011;6686;51.292;4.166;2023-03-31T08:28:11;8.97;;;3.43;;
13238;SDS011;6686;51.292;4.166;2023-03-31T08:31:01;14.07;;;4.03;;
13238;SDS011;6686;51.292;4.166;2023-03-31T08:33:43;15.43;;;4.87;;
13238;SDS011;6686;51.292;4.166;2023-03-31T08:36:29;13.73;;;4.07;;
13238;SDS011;6686;51.292;4.166;2023-03-31T08:39:15;15.17;;;3.40;;
13238;SDS011;6686;51.292;4.166;2023-03-31T08:42:12;14.67;;;3.80;;
13238;SDS011;6686;51.292;4.166;2023-03-31T08:47:44;17.23;;;3.73;;
13238;SDS011;6686;51.292;4.166;2023-03-31T08:50:31;13.02;;;4.07;;
13238;SDS011;6686;51.292;4.166;2023-03-31T08:53:21;15.23;;;3.63;;
13238;SDS011;6686;51.292;4.166;2023-03-31T08:56:05;16.30;;;4.33;;
13238;SDS011;6686;51.292;4.166;2023-03-31T08:58:50;16.53;;;4.63;;
13238;SDS011;6686;51.292;4.166;2023-03-31T09:01:40;10.70;;;3.87;;
13238;SDS011;6686;51.292;4.166;2023-03-31T09:07:15;13.13;;;4.30;;
13238;SDS011;6686;51.292;4.166;2023-03-31T09:13:04;9.93;;;3.00;;
13238;SDS011;6686;51.292;4.166;2023-03-31T09:15:52;13.83;;;3.40;;
13238;SDS011;6686;51.292;4.166;2023-03-31T09:18:44;11.90;;;4.00;;
13238;SDS011;6686;51.292;4.166;2023-03-31T09:21:34;14.63;;;3.73;;
13238;SDS011;6686;51.292;4.166;2023-03-31T09:24:29;16.67;;;3.90;;
13238;SDS011;6686;51.292;4.166;2023-03-31T09:27:19;14.87;;;4.37;;
13238;SDS011;6686;51.292;4.166;2023-03-31T09:33:10;14.60;;;3.17;;
13238;SDS011;6686;51.292;4.166;2023-03-31T09:35:55;10.50;;;3.70;;
13238;SDS011;6686;51.292;4.166;2023-03-31T09:38:42;13.83;;;4.20;;
13238;SDS011;6686;51.292;4.166;2023-03-31T09:41:27;13.83;;;3.87;;
13238;SDS011;6686;51.292;4.166;2023-03-31T09:44:26;16.37;;;3.73;;
13238;SDS011;6686;51.292;4.166;2023-03-31T09:47:49;10.33;;;3.50;;
13238;SDS011;6686;51.292;4.166;2023-03-31T09:50:13;13.73;;;3.67;;
13238;SDS011;6686;51.292;4.166;2023-03-31T09:52:58;15.37;;;3.73;;
13238;SDS011;6686;51.292;4.166;2023-03-31T09:55:59;11.10;;;3.57;;
13238;SDS011;6686;51.292;4.166;2023-03-31T09:58:43;8.97;;;2.90;;
13238;SDS011;6686;51.292;4.166;2023-03-31T10:01:27;10.10;;;3.13;;
13238;SDS011;6686;51.292;4.166;2023-03-31T10:04:21;10.33;;;3.70;;
13238;SDS011;6686;51.292;4.166;2023-03-31T10:07:05;14.57;;;4.53;;
13238;SDS011;6686;51.292;4.166;2023-03-31T10:09:55;12.60;;;3.53;;
13238;SDS011;6686;51.292;4.166;2023-03-31T10:12:37;9.17;;;3.50;;
13238;SDS011;6686;51.292;4.166;2023-03-31T10:15:26;16.35;;;4.50;;
13238;SDS011;6686;51.292;4.166;2023-03-31T10:18:15;14.57;;;4.37;;
13238;SDS011;6686;51.292;4.166;2023-03-31T10:21:01;12.25;;;3.78;;
13238;SDS011;6686;51.292;4.166;2023-03-31T10:23:47;12.17;;;3.87;;
13238;SDS011;6686;51.292;4.166;2023-03-31T10:26:32;13.93;;;3.83;;
13238;SDS011;6686;51.292;4.166;2023-03-31T10:29:20;14.17;;;3.40;;
13238;SDS011;6686;51.292;4.166;2023-03-31T10:32:09;13.60;;;3.47;;
13238;SDS011;6686;51.292;4.166;2023-03-31T10:34:53;14.20;;;3.53;;
13238;SDS011;6686;51.292;4.166;2023-03-31T10:37:39;13.43;;;3.90;;
13238;SDS011;6686;51.292;4.166;2023-03-31T10:40:26;14.20;;;3.77;;
13238;SDS011;6686;51.292;4.166;2023-03-31T10:43:17;18.20;;;3.83;;
13238;SDS011;6686;51.292;4.166;2023-03-31T10:46:03;15.40;;;4.10;;
13238;SDS011;6686;51.292;4.166;2023-03-31T10:48:49;12.87;;;3.63;;
13238;SDS011;6686;51.292;4.166;2023-03-31T10:51:35;19.13;;;4.20;;
13238;SDS011;6686;51.292;4.166;2023-03-31T10:54:21;15.63;;;4.70;;
13238;SDS011;6686;51.292;4.166;2023-03-31T10:57:07;17.77;;;5.87;;
13238;SDS011;6686;51.292;4.166;2023-03-31T11:05:57;12.13;;;4.03;;
13238;SDS011;6686;51.292;4.166;2023-03-31T11:11:55;15.57;;;4.10;;
13238;SDS011;6686;51.292;4.166;2023-03-31T11:20:33;11.17;;;3.27;;
13238;SDS011;6686;51.292;4.166;2023-03-31T11:23:39;14.90;;;3.93;;
13238;SDS011;6686;51.292;4.166;2023-03-31T11:29:39;10.47;;;3.30;;
13238;SDS011;6686;51.292;4.166;2023-03-31T11:38:47;8.73;;;3.20;;
13238;SDS011;6686;51.292;4.166;2023-03-31T11:44:27;8.17;;;2.93;;
13238;SDS011;6686;51.292;4.166;2023-03-31T11:47:14;11.83;;;3.40;;
13238;SDS011;6686;51.292;4.166;2023-03-31T11:52:59;10.50;;;3.40;;
13238;SDS011;6686;51.292;4.166;2023-03-31T11:55:47;10.73;;;3.50;;
13238;SDS011;6686;51.292;4.166;2023-03-31T12:01:41;8.63;;;2.63;;
13238;SDS011;6686;51.292;4.166;2023-03-31T12:04:35;8.60;;;2.63;;
13238;SDS011;6686;51.292;4.166;2023-03-31T12:10:18;8.67;;;3.27;;
13238;SDS011;6686;51.292;4.166;2023-03-31T12:16:05;8.50;;;2.47;;
13238;SDS011;6686;51.292;4.166;2023-03-31T12:19:10;8.97;;;2.20;;
13238;SDS011;6686;51.292;4.166;2023-03-31T12:24:54;5.57;;;2.33;;
13238;SDS011;6686;51.292;4.166;2023-03-31T12:27:43;9.57;;;2.20;;
13238;SDS011;6686;51.292;4.166;2023-03-31T12:30:35;8.77;;;2.20;;
13238;SDS011;6686;51.292;4.166;2023-03-31T12:33:30;5.03;;;2.00;;
13238;SDS011;6686;51.292;4.166;2023-03-31T12:42:54;8.67;;;3.17;;
13238;SDS011;6686;51.292;4.166;2023-03-31T12:45:53;7.30;;;2.43;;
13238;SDS011;6686;51.292;4.166;2023-03-31T12:48:44;5.10;;;1.73;;
13238;SDS011;6686;51.292;4.166;2023-03-31T12:54:56;1.50;;;1.30;;
13238;SDS011;6686;51.292;4.166;2023-03-31T13:01:20;6.43;;;1.50;;
13238;SDS011;6686;51.292;4.166;2023-03-31T13:04:20;4.93;;;1.50;;
13238;SDS011;6686;51.292;4.166;2023-03-31T13:07:13;5.47;;;1.77;;
13238;SDS011;6686;51.292;4.166;2023-03-31T13:13:02;2.30;;;1.40;;
13238;SDS011;6686;51.292;4.166;2023-03-31T13:15:50;4.87;;;2.13;;
13238;SDS011;6686;51.292;4.166;2023-03-31T13:18:36;4.47;;;1.47;;
13238;SDS011;6686;51.292;4.166;2023-03-31T13:21:22;3.57;;;1.70;;
13238;SDS011;6686;51.292;4.166;2023-03-31T13:24:08;3.80;;;1.60;;
13238;SDS011;6686;51.292;4.166;2023-03-31T13:26:54;3.67;;;1.80;;
13238;SDS011;6686;51.292;4.166;2023-03-31T13:29:44;4.82;;;2.00;;
13238;SDS011;6686;51.292;4.166;2023-03-31T13:32:26;4.37;;;1.77;;
13238;SDS011;6686;51.292;4.166;2023-03-31T13:35:13;3.33;;;1.50;;
13238;SDS011;6686;51.292;4.166;2023-03-31T13:41:01;2.93;;;1.23;;
13238;SDS011;6686;51.292;4.166;2023-03-31T13:59:04;2.83;;;1.30;;
13238;SDS011;6686;51.292;4.166;2023-03-31T14:04:54;5.80;;;1.57;;
13238;SDS011;6686;51.292;4.166;2023-03-31T14:07:49;3.30;;;1.50;;
13238;SDS011;6686;51.292;4.166;2023-03-31T14:10:33;4.97;;;1.60;;
13238;SDS011;6686;51.292;4.166;2023-03-31T14:13:19;3.33;;;1.80;;
13238;SDS011;6686;51.292;4.166;2023-03-31T14:16:04;5.20;;;1.80;;
13238;SDS011;6686;51.292;4.166;2023-03-31T14:18:50;4.40;;;1.80;;
13238;SDS011;6686;51.292;4.166;2023-03-31T14:21:41;4.80;;;1.50;;
13238;SDS011;6686;51.292;4.166;2023-03-31T14:24:28;6.87;;;1.57;;
13238;SDS011;6686;51.292;4.166;2023-03-31T14:31:28;2.60;;;1.37;;
13238;SDS011;6686;51.292;4.166;2023-03-31T14:33:37;5.50;;;1.70;;
13238;SDS011;6686;51.292;4.166;2023-03-31T14:36:37;5.03;;;1.63;;
13238;SDS011;6686;51.292;4.166;2023-03-31T14:39:20;5.40;;;1.47;;
13238;SDS011;6686;51.292;4.166;2023-03-31T14:42:50;2.73;;;1.30;;
13238;SDS011;6686;51.292;4.166;2023-03-31T14:44:56;2.97;;;1.43;;
13238;SDS011;6686;51.292;4.166;2023-03-31T14:47:42;3.07;;;1.53;;
13238;SDS011;6686;51.292;4.166;2023-03-31T14:50:34;2.00;;;1.23;;
13238;SDS011;6686;51.292;4.166;2023-03-31T14:53:22;3.70;;;1.90;;
13238;SDS011;6686;51.292;4.166;2023-03-31T14:56:18;6.10;;;2.40;;
13238;SDS011;6686;51.292;4.166;2023-03-31T14:58:57;3.47;;;1.87;;
13238;SDS011;6686;51.292;4.166;2023-03-31T15:01:43;3.93;;;1.53;;
13238;SDS011;6686;51.292;4.166;2023-03-31T15:04:30;6.30;;;1.73;;
13238;SDS011;6686;51.292;4.166;2023-03-31T15:07:15;3.90;;;1.90;;
13238;SDS011;6686;51.292;4.166;2023-03-31T15:10:02;4.87;;;2.15;;
13238;SDS011;6686;51.292;4.166;2023-03-31T15:12:48;9.13;;;2.10;;
13238;SDS011;6686;51.292;4.166;2023-03-31T15:15:33;4.33;;;1.90;;
13238;SDS011;6686;51.292;4.166;2023-03-31T15:18:19;6.90;;;2.17;;
13238;SDS011;6686;51.292;4.166;2023-03-31T15:21:05;2.20;;;1.50;;
13238;SDS011;6686;51.292;4.166;2023-03-31T15:23:51;3.70;;;1.70;;
13238;SDS011;6686;51.292;4.166;2023-03-31T15:26:39;3.53;;;1.80;;
13238;SDS011;6686;51.292;4.166;2023-03-31T15:29:36;4.03;;;1.60;;
13238;SDS011;6686;51.292;4.166;2023-03-31T15:32:31;5.30;;;2.13;;
13238;SDS011;6686;51.292;4.166;2023-03-31T15:35:25;5.00;;;1.83;;
13238;SDS011;6686;51.292;4.166;2023-03-31T15:38:10;3.93;;;1.83;;
13238;SDS011;6686;51.292;4.166;2023-03-31T15:40:57;6.37;;;2.07;;
13238;SDS011;6686;51.292;4.166;2023-03-31T15:43:47;5.20;;;1.80;;
13238;SDS011;6686;51.292;4.166;2023-03-31T15:49:23;6.00;;;2.37;;
13238;SDS011;6686;51.292;4.166;2023-03-31T15:52:18;8.10;;;2.27;;
13238;SDS011;6686;51.292;4.166;2023-03-31T15:54:56;5.30;;;2.50;;
13238;SDS011;6686;51.292;4.166;2023-03-31T15:57:42;11.70;;;3.03;;
13238;SDS011;6686;51.292;4.166;2023-03-31T16:00:42;8.63;;;2.43;;
13238;SDS011;6686;51.292;4.166;2023-03-31T16:03:34;5.80;;;2.30;;
13238;SDS011;6686;51.292;4.166;2023-03-31T16:09:50;9.00;;;2.90;;
13238;SDS011;6686;51.292;4.166;2023-03-31T16:12:41;10.90;;;3.10;;
13238;SDS011;6686;51.292;4.166;2023-03-31T16:15:30;9.83;;;2.80;;
13238;SDS011;6686;51.292;4.166;2023-03-31T16:21:20;11.07;;;3.13;;
13238;SDS011;6686;51.292;4.166;2023-03-31T16:24:05;8.97;;;3.23;;
13238;SDS011;6686;51.292;4.166;2023-03-31T16:26:51;13.27;;;3.70;;
13238;SDS011;6686;51.292;4.166;2023-03-31T16:29:37;14.03;;;3.40;;
13238;SDS011;6686;51.292;4.166;2023-03-31T16:32:23;13.68;;;3.67;;
13238;SDS011;6686;51.292;4.166;2023-03-31T16:35:09;11.20;;;3.57;;
13238;SDS011;6686;51.292;4.166;2023-03-31T16:37:55;12.07;;;3.50;;
13238;SDS011;6686;51.292;4.166;2023-03-31T16:40:45;9.10;;;3.03;;
13238;SDS011;6686;51.292;4.166;2023-03-31T16:43:30;14.37;;;3.97;;
13238;SDS011;6686;51.292;4.166;2023-03-31T16:46:16;14.27;;;3.83;;
13238;SDS011;6686;51.292;4.166;2023-03-31T16:49:02;14.60;;;3.30;;
13238;SDS011;6686;51.292;4.166;2023-03-31T16:51:48;15.73;;;4.65;;
13238;SDS011;6686;51.292;4.166;2023-03-31T16:54:33;14.20;;;4.27;;
13238;SDS011;6686;51.292;4.166;2023-03-31T16:57:19;12.03;;;3.23;;
13238;SDS011;6686;51.292;4.166;2023-03-31T17:00:05;12.33;;;3.63;;
13238;SDS011;6686;51.292;4.166;2023-03-31T17:02:52;12.82;;;4.05;;
13238;SDS011;6686;51.292;4.166;2023-03-31T17:05:38;13.03;;;3.57;;
13238;SDS011;6686;51.292;4.166;2023-03-31T17:08:26;14.57;;;4.40;;
13238;SDS011;6686;51.292;4.166;2023-03-31T17:11:12;15.10;;;4.53;;
13238;SDS011;6686;51.292;4.166;2023-03-31T17:13:58;12.53;;;4.17;;
13238;SDS011;6686;51.292;4.166;2023-03-31T17:16:44;17.97;;;4.70;;
13238;SDS011;6686;51.292;4.166;2023-03-31T17:19:30;15.13;;;3.93;;
13238;SDS011;6686;51.292;4.166;2023-03-31T17:22:15;17.03;;;4.57;;
13238;SDS011;6686;51.292;4.166;2023-03-31T17:25:01;13.77;;;4.47;;
13238;SDS011;6686;51.292;4.166;2023-03-31T17:27:47;18.57;;;4.37;;
13238;SDS011;6686;51.292;4.166;2023-03-31T17:30:34;16.40;;;5.40;;
13238;SDS011;6686;51.292;4.166;2023-03-31T17:33:19;20.13;;;5.50;;
13238;SDS011;6686;51.292;4.166;2023-03-31T17:36:05;14.87;;;4.70;;
13238;SDS011;6686;51.292;4.166;2023-03-31T17:38:51;17.73;;;5.10;;
13238;SDS011;6686;51.292;4.166;2023-03-31T17:41:37;17.33;;;4.57;;
13238;SDS011;6686;51.292;4.166;2023-03-31T17:44:23;15.53;;;5.03;;
13238;SDS011;6686;51.292;4.166;2023-03-31T17:47:09;16.53;;;4.80;;
13238;SDS011;6686;51.292;4.166;2023-03-31T17:50:05;19.90;;;5.00;;
13238;SDS011;6686;51.292;4.166;2023-03-31T17:52:51;14.10;;;4.30;;
13238;SDS011;6686;51.292;4.166;2023-03-31T17:55:37;14.93;;;4.40;;
13238;SDS011;6686;51.292;4.166;2023-03-31T17:58:23;13.80;;;4.80;;
13238;SDS011;6686;51.292;4.166;2023-03-31T18:01:09;14.70;;;5.10;;
13238;SDS011;6686;51.292;4.166;2023-03-31T18:03:54;16.33;;;5.20;;
13238;SDS011;6686;51.292;4.166;2023-03-31T18:06:40;13.67;;;4.27;;
13238;SDS011;6686;51.292;4.166;2023-03-31T18:09:26;16.73;;;5.30;;
13238;SDS011;6686;51.292;4.166;2023-03-31T18:12:11;21.17;;;6.10;;
13238;SDS011;6686;51.292;4.166;2023-03-31T18:14:57;13.27;;;5.20;;
13238;SDS011;6686;51.292;4.166;2023-03-31T18:17:43;19.30;;;5.00;;
13238;SDS011;6686;51.292;4.166;2023-03-31T18:20:30;18.73;;;5.67;;
13238;SDS011;6686;51.292;4.166;2023-03-31T18:23:15;19.50;;;4.90;;
13238;SDS011;6686;51.292;4.166;2023-03-31T18:26:04;19.37;;;5.67;;
13238;SDS011;6686;51.292;4.166;2023-03-31T18:28:47;19.17;;;5.93;;
13238;SDS011;6686;51.292;4.166;2023-03-31T18:31:33;19.87;;;5.40;;
13238;SDS011;6686;51.292;4.166;2023-03-31T18:34:19;18.00;;;4.90;;
13238;SDS011;6686;51.292;4.166;2023-03-31T18:37:05;19.08;;;5.20;;
13238;SDS011;6686;51.292;4.166;2023-03-31T18:39:51;18.37;;;5.00;;
13238;SDS011;6686;51.292;4.166;2023-03-31T18:42:37;18.37;;;5.60;;
13238;SDS011;6686;51.292;4.166;2023-03-31T18:45:23;18.40;;;5.27;;
13238;SDS011;6686;51.292;4.166;2023-03-31T18:48:08;20.23;;;4.87;;
13238;SDS011;6686;51.292;4.166;2023-03-31T18:50:54;18.50;;;5.30;;
13238;SDS011;6686;51.292;4.166;2023-03-31T18:53:40;23.07;;;5.27;;
13238;SDS011;6686;51.292;4.166;2023-03-31T18:56:26;17.97;;;4.30;;
13238;SDS011;6686;51.292;4.166;2023-03-31T18:59:12;15.77;;;5.13;;
13238;SDS011;6686;51.292;4.166;2023-03-31T19:01:58;17.87;;;5.03;;
13238;SDS011;6686;51.292;4.166;2023-03-31T19:04:44;16.83;;;4.77;;
13238;SDS011;6686;51.292;4.166;2023-03-31T19:07:30;23.73;;;5.07;;
13238;SDS011;6686;51.292;4.166;2023-03-31T19:10:15;17.40;;;4.30;;
13238;SDS011;6686;51.292;4.166;2023-03-31T19:13:01;17.10;;;5.23;;